sensor_id;sensor_type;location;lat;lon;timestamp;P1;durP1;ratioP1;P2;durP2;ratioP2
1625;SDS011;806;48.770;9.156;2024-03-23T00:51:36;1.30;;;0.60;;
1625;SDS011;806;48.770;9.156;2024-03-23T00:54:03;0.80;;;0.50;;
1625;SDS011;806;48.770;9.156;2024-03-23T00:56:29;1.20;;;0.60;;
1625;SDS011;806;48.770;9.156;2024-03-23T00:58:57;0.70;;;0.50;;
1625;SDS011;806;48.770;9.156;2024-03-23T01:01:22;1.08;;;0.55;;
1625;SDS011;806;48.770;9.156;2024-03-23T01:03:50;1.20;;;0.60;;
1625;SDS011;806;48.770;9.156;2024-03-23T01:06:16;0.68;;;0.50;;
1625;SDS011;806;48.770;9.156;2024-03-23T01:08:45;0.88;;;0.55;;
1625;SDS011;806;48.770;9.156;2024-03-23T01:11:11;1.90;;;0.50;;
1625;SDS011;806;48.770;9.156;2024-03-23T01:13:38;1.10;;;0.60;;
1625;SDS011;806;48.770;9.156;2024-03-23T01:16:04;0.80;;;0.50;;
1625;SDS011;806;48.770;9.156;2024-03-23T01:18:31;0.90;;;0.57;;
1625;SDS011;806;48.770;9.156;2024-03-23T01:20:58;1.40;;;0.50;;
1625;SDS011;806;48.770;9.156;2024-03-23T01:23:25;1.80;;;0.60;;
1625;SDS011;806;48.770;9.156;2024-03-23T01:25:52;0.80;;;0.50;;
1625;SDS011;806;48.770;9.156;2024-03-23T01:28:20;1.30;;;0.60;;
1625;SDS011;806;48.770;9.156;2024-03-23T01:30:46;1.23;;;0.60;;
1625;SDS011;806;48.770;9.156;2024-03-23T01:33:13;0.80;;;0.50;;
1625;SDS011;806;48.770;9.156;2024-03-23T01:35:40;1.20;;;0.50;;
1625;SDS011;806;48.770;9.156;2024-03-23T01:38:07;1.00;;;0.50;;
1625;SDS011;806;48.770;9.156;2024-03-23T01:40:33;0.90;;;0.60;;
1625;SDS011;806;48.770;9.156;2024-03-23T01:43:03;0.90;;;0.60;;
1625;SDS011;806;48.770;9.156;2024-03-23T01:45:30;2.10;;;0.50;;
1625;SDS011;806;48.770;9.156;2024-03-23T01:47:58;1.30;;;0.55;;
1625;SDS011;806;48.770;9.156;2024-03-23T01:50:25;0.95;;;0.50;;
1625;SDS011;806;48.770;9.156;2024-03-23T01:52:52;0.70;;;0.60;;
1625;SDS011;806;48.770;9.156;2024-03-23T01:55:19;1.42;;;0.50;;
1625;SDS011;806;48.770;9.156;2024-03-23T01:57:46;1.00;;;0.60;;
1625;SDS011;806;48.770;9.156;2024-03-23T02:00:14;0.80;;;0.50;;
1625;SDS011;806;48.770;9.156;2024-03-23T02:02:42;1.30;;;0.60;;
1625;SDS011;806;48.770;9.156;2024-03-23T02:05:09;2.20;;;0.60;;
1625;SDS011;806;48.770;9.156;2024-03-23T02:07:36;0.80;;;0.50;;
1625;SDS011;806;48.770;9.156;2024-03-23T02:10:03;0.90;;;0.60;;
1625;SDS011;806;48.770;9.156;2024-03-23T02:12:31;0.70;;;0.50;;
1625;SDS011;806;48.770;9.156;2024-03-23T02:14:57;1.00;;;0.50;;
1625;SDS011;806;48.770;9.156;2024-03-23T02:17:26;1.03;;;0.60;;
1625;SDS011;806;48.770;9.156;2024-03-23T02:19:52;1.65;;;0.50;;
1625;SDS011;806;48.770;9.156;2024-03-23T02:22:19;1.00;;;0.60;;
1625;SDS011;806;48.770;9.156;2024-03-23T02:24:46;1.10;;;0.60;;
1625;SDS011;806;48.770;9.156;2024-03-23T02:27:13;1.30;;;1.00;;
1625;SDS011;806;48.770;9.156;2024-03-23T02:29:39;0.90;;;0.50;;
1625;SDS011;806;48.770;9.156;2024-03-23T02:32:06;1.40;;;0.50;;
1625;SDS011;806;48.770;9.156;2024-03-23T02:34:34;1.70;;;0.60;;
1625;SDS011;806;48.770;9.156;2024-03-23T02:37:01;1.10;;;0.60;;
1625;SDS011;806;48.770;9.156;2024-03-23T02:39:27;1.90;;;0.60;;
1625;SDS011;806;48.770;9.156;2024-03-23T02:41:56;1.20;;;0.57;;
1625;SDS011;806;48.770;9.156;2024-03-23T02:44:22;0.70;;;0.50;;
1625;SDS011;806;48.770;9.156;2024-03-23T02:46:49;1.30;;;0.60;;
1625;SDS011;806;48.770;9.156;2024-03-23T02:49:15;1.88;;;0.50;;
1625;SDS011;806;48.770;9.156;2024-03-23T02:51:42;1.37;;;0.57;;
1625;SDS011;806;48.770;9.156;2024-03-23T02:54:10;0.70;;;0.40;;
1625;SDS011;806;48.770;9.156;2024-03-23T02:56:37;0.80;;;0.50;;
1625;SDS011;806;48.770;9.156;2024-03-23T02:59:04;0.80;;;0.50;;
1625;SDS011;806;48.770;9.156;2024-03-23T03:01:31;1.00;;;0.50;;
1625;SDS011;806;48.770;9.156;2024-03-23T03:03:57;0.80;;;0.50;;
1625;SDS011;806;48.770;9.156;2024-03-23T03:06:25;0.70;;;0.50;;
1625;SDS011;806;48.770;9.156;2024-03-23T03:08:51;0.80;;;0.40;;
1625;SDS011;806;48.770;9.156;2024-03-23T03:11:18;1.10;;;0.50;;
1625;SDS011;806;48.770;9.156;2024-03-23T03:13:44;0.90;;;0.50;;
1625;SDS011;806;48.770;9.156;2024-03-23T03:16:12;0.88;;;0.50;;
1625;SDS011;806;48.770;9.156;2024-03-23T03:18:39;0.80;;;0.50;;
1625;SDS011;806;48.770;9.156;2024-03-23T03:21:06;1.00;;;0.50;;
1625;SDS011;806;48.770;9.156;2024-03-23T03:23:36;0.90;;;0.50;;
1625;SDS011;806;48.770;9.156;2024-03-23T03:26:03;0.82;;;0.40;;
1625;SDS011;806;48.770;9.156;2024-03-23T03:28:30;1.02;;;0.50;;
1625;SDS011;806;48.770;9.156;2024-03-23T03:30:57;1.08;;;0.50;;
1625;SDS011;806;48.770;9.156;2024-03-23T03:33:25;0.80;;;0.50;;
1625;SDS011;806;48.770;9.156;2024-03-23T03:35:53;1.60;;;0.50;;
1625;SDS011;806;48.770;9.156;2024-03-23T03:38:19;1.30;;;0.50;;
1625;SDS011;806;48.770;9.156;2024-03-23T03:40:46;0.73;;;0.50;;
1625;SDS011;806;48.770;9.156;2024-03-23T03:43:12;0.98;;;0.50;;
1625;SDS011;806;48.770;9.156;2024-03-23T03:45:39;1.00;;;0.60;;
1625;SDS011;806;48.770;9.156;2024-03-23T03:48:06;1.27;;;0.50;;
1625;SDS011;806;48.770;9.156;2024-03-23T03:50:35;0.80;;;0.50;;
1625;SDS011;806;48.770;9.156;2024-03-23T03:53:02;0.80;;;0.50;;
1625;SDS011;806;48.770;9.156;2024-03-23T03:55:30;1.00;;;0.60;;
1625;SDS011;806;48.770;9.156;2024-03-23T03:57:57;1.20;;;0.70;;
1625;SDS011;806;48.770;9.156;2024-03-23T04:00:24;1.85;;;0.55;;
1625;SDS011;806;48.770;9.156;2024-03-23T04:02:50;1.75;;;0.60;;
1625;SDS011;806;48.770;9.156;2024-03-23T04:05:17;0.80;;;0.60;;
1625;SDS011;806;48.770;9.156;2024-03-23T04:07:45;1.20;;;0.50;;
1625;SDS011;806;48.770;9.156;2024-03-23T04:10:12;1.05;;;0.50;;
1625;SDS011;806;48.770;9.156;2024-03-23T04:12:40;0.85;;;0.55;;
1625;SDS011;806;48.770;9.156;2024-03-23T04:15:08;0.70;;;0.50;;
1625;SDS011;806;48.770;9.156;2024-03-23T04:17:34;0.80;;;0.65;;
1625;SDS011;806;48.770;9.156;2024-03-23T04:20:02;1.30;;;0.50;;
1625;SDS011;806;48.770;9.156;2024-03-23T04:22:30;0.73;;;0.50;;
1625;SDS011;806;48.770;9.156;2024-03-23T04:25:00;0.80;;;0.50;;
1625;SDS011;806;48.770;9.156;2024-03-23T04:27:31;0.90;;;0.50;;
1625;SDS011;806;48.770;9.156;2024-03-23T04:29:59;0.88;;;0.60;;
1625;SDS011;806;48.770;9.156;2024-03-23T04:32:26;1.30;;;0.50;;
1625;SDS011;806;48.770;9.156;2024-03-23T04:34:54;1.17;;;0.50;;
1625;SDS011;806;48.770;9.156;2024-03-23T04:37:20;1.00;;;0.50;;
1625;SDS011;806;48.770;9.156;2024-03-23T04:39:47;0.98;;;0.50;;
1625;SDS011;806;48.770;9.156;2024-03-23T04:42:16;0.60;;;0.40;;
1625;SDS011;806;48.770;9.156;2024-03-23T04:44:44;2.15;;;0.60;;
1625;SDS011;806;48.770;9.156;2024-03-23T04:47:11;1.13;;;0.50;;
1625;SDS011;806;48.770;9.156;2024-03-23T04:49:38;0.70;;;0.50;;
1625;SDS011;806;48.770;9.156;2024-03-23T04:52:05;1.00;;;0.70;;
1625;SDS011;806;48.770;9.156;2024-03-23T04:54:32;0.80;;;0.50;;
1625;SDS011;806;48.770;9.156;2024-03-23T04:56:58;1.10;;;0.60;;
1625;SDS011;806;48.770;9.156;2024-03-23T04:59:27;1.15;;;0.70;;
1625;SDS011;806;48.770;9.156;2024-03-23T05:01:53;1.60;;;0.70;;
1625;SDS011;806;48.770;9.156;2024-03-23T05:04:20;2.10;;;0.90;;
1625;SDS011;806;48.770;9.156;2024-03-23T05:06:46;1.40;;;0.93;;
1625;SDS011;806;48.770;9.156;2024-03-23T05:09:13;3.50;;;1.20;;
1625;SDS011;806;48.770;9.156;2024-03-23T05:11:39;2.75;;;1.40;;
1625;SDS011;806;48.770;9.156;2024-03-23T05:14:07;2.90;;;1.50;;
1625;SDS011;806;48.770;9.156;2024-03-23T05:16:34;2.75;;;1.40;;
1625;SDS011;806;48.770;9.156;2024-03-23T05:19:01;3.70;;;1.60;;
1625;SDS011;806;48.770;9.156;2024-03-23T05:21:28;3.35;;;2.00;;
1625;SDS011;806;48.770;9.156;2024-03-23T05:23:55;3.60;;;1.70;;
1625;SDS011;806;48.770;9.156;2024-03-23T05:26:21;5.38;;;2.20;;
1625;SDS011;806;48.770;9.156;2024-03-23T05:28:48;2.65;;;2.00;;
1625;SDS011;806;48.770;9.156;2024-03-23T05:31:22;3.90;;;1.60;;
1625;SDS011;806;48.770;9.156;2024-03-23T05:33:51;4.75;;;2.35;;
1625;SDS011;806;48.770;9.156;2024-03-23T05:36:18;4.03;;;1.90;;
1625;SDS011;806;48.770;9.156;2024-03-23T05:38:44;5.43;;;2.33;;
1625;SDS011;806;48.770;9.156;2024-03-23T05:41:11;3.00;;;1.73;;
1625;SDS011;806;48.770;9.156;2024-03-23T05:43:37;2.67;;;1.63;;
1625;SDS011;806;48.770;9.156;2024-03-23T05:46:04;5.68;;;1.85;;
1625;SDS011;806;48.770;9.156;2024-03-23T05:48:31;3.90;;;1.60;;
1625;SDS011;806;48.770;9.156;2024-03-23T05:50:59;4.65;;;1.85;;
1625;SDS011;806;48.770;9.156;2024-03-23T05:53:25;3.65;;;1.80;;
1625;SDS011;806;48.770;9.156;2024-03-23T05:56:00;2.20;;;1.30;;
1625;SDS011;806;48.770;9.156;2024-03-23T05:58:28;3.67;;;1.70;;
1625;SDS011;806;48.770;9.156;2024-03-23T06:00:59;2.20;;;1.60;;
1625;SDS011;806;48.770;9.156;2024-03-23T06:03:26;1.50;;;0.80;;
1625;SDS011;806;48.770;9.156;2024-03-23T06:05:54;1.70;;;0.90;;
1625;SDS011;806;48.770;9.156;2024-03-23T06:08:21;1.60;;;0.90;;
1625;SDS011;806;48.770;9.156;2024-03-23T06:10:49;1.20;;;0.80;;
1625;SDS011;806;48.770;9.156;2024-03-23T06:13:16;1.50;;;0.80;;
1625;SDS011;806;48.770;9.156;2024-03-23T06:15:43;1.33;;;0.70;;
1625;SDS011;806;48.770;9.156;2024-03-23T06:18:10;1.30;;;0.60;;
1625;SDS011;806;48.770;9.156;2024-03-23T06:20:37;1.25;;;0.63;;
1625;SDS011;806;48.770;9.156;2024-03-23T06:23:03;1.00;;;0.50;;
1625;SDS011;806;48.770;9.156;2024-03-23T06:25:32;1.02;;;0.50;;
1625;SDS011;806;48.770;9.156;2024-03-23T06:27:58;0.70;;;0.30;;
1625;SDS011;806;48.770;9.156;2024-03-23T06:30:26;0.80;;;0.40;;
1625;SDS011;806;48.770;9.156;2024-03-23T06:32:53;0.80;;;0.40;;
1625;SDS011;806;48.770;9.156;2024-03-23T06:35:20;0.70;;;0.40;;
1625;SDS011;806;48.770;9.156;2024-03-23T06:37:46;0.80;;;0.30;;
1625;SDS011;806;48.770;9.156;2024-03-23T06:40:13;0.50;;;0.20;;
1625;SDS011;806;48.770;9.156;2024-03-23T06:42:40;0.63;;;0.30;;
1625;SDS011;806;48.770;9.156;2024-03-23T06:45:08;0.57;;;0.20;;
1625;SDS011;806;48.770;9.156;2024-03-23T06:47:34;0.47;;;0.20;;
1625;SDS011;806;48.770;9.156;2024-03-23T06:50:02;0.40;;;0.20;;
1625;SDS011;806;48.770;9.156;2024-03-23T06:52:29;0.40;;;0.13;;
1625;SDS011;806;48.770;9.156;2024-03-23T06:54:57;0.30;;;0.10;;
1625;SDS011;806;48.770;9.156;2024-03-23T06:57:23;0.40;;;0.20;;
1625;SDS011;806;48.770;9.156;2024-03-23T06:59:52;0.50;;;0.10;;
1625;SDS011;806;48.770;9.156;2024-03-23T07:02:18;0.30;;;0.10;;
1625;SDS011;806;48.770;9.156;2024-03-23T07:04:45;0.40;;;0.10;;
1625;SDS011;806;48.770;9.156;2024-03-23T07:07:11;0.30;;;0.10;;
1625;SDS011;806;48.770;9.156;2024-03-23T07:09:38;0.40;;;0.10;;
1625;SDS011;806;48.770;9.156;2024-03-23T07:12:04;0.70;;;0.10;;
1625;SDS011;806;48.770;9.156;2024-03-23T07:14:32;0.30;;;0.10;;
1625;SDS011;806;48.770;9.156;2024-03-23T07:16:59;0.30;;;0.10;;
1625;SDS011;806;48.770;9.156;2024-03-23T07:19:26;0.30;;;0.10;;
1625;SDS011;806;48.770;9.156;2024-03-23T07:21:53;0.40;;;0.10;;
1625;SDS011;806;48.770;9.156;2024-03-23T07:24:20;0.40;;;0.10;;
1625;SDS011;806;48.770;9.156;2024-03-23T07:26:47;0.30;;;0.10;;
1625;SDS011;806;48.770;9.156;2024-03-23T07:29:13;0.40;;;0.10;;
1625;SDS011;806;48.770;9.156;2024-03-23T07:31:40;0.30;;;0.10;;
1625;SDS011;806;48.770;9.156;2024-03-23T07:34:08;0.30;;;0.10;;
1625;SDS011;806;48.770;9.156;2024-03-23T07:36:35;0.50;;;0.10;;
1625;SDS011;806;48.770;9.156;2024-03-23T07:39:01;0.30;;;0.10;;
1625;SDS011;806;48.770;9.156;2024-03-23T07:41:29;0.30;;;0.10;;
1625;SDS011;806;48.770;9.156;2024-03-23T07:43:55;0.30;;;0.10;;
1625;SDS011;806;48.770;9.156;2024-03-23T07:46:22;0.40;;;0.20;;
1625;SDS011;806;48.770;9.156;2024-03-23T07:48:50;0.30;;;0.10;;
1625;SDS011;806;48.770;9.156;2024-03-23T07:51:20;0.30;;;0.10;;
1625;SDS011;806;48.770;9.156;2024-03-23T07:53:46;1.50;;;0.10;;
1625;SDS011;806;48.770;9.156;2024-03-23T07:56:14;0.40;;;0.10;;
1625;SDS011;806;48.770;9.156;2024-03-23T07:58:41;0.30;;;0.10;;
1625;SDS011;806;48.770;9.156;2024-03-23T08:01:09;0.35;;;0.10;;
1625;SDS011;806;48.770;9.156;2024-03-23T08:03:36;0.30;;;0.10;;
1625;SDS011;806;48.770;9.156;2024-03-23T08:06:07;0.40;;;0.10;;
1625;SDS011;806;48.770;9.156;2024-03-23T08:08:35;1.00;;;0.10;;
1625;SDS011;806;48.770;9.156;2024-03-23T08:11:02;1.00;;;0.20;;
1625;SDS011;806;48.770;9.156;2024-03-23T08:13:28;0.30;;;0.10;;
1625;SDS011;806;48.770;9.156;2024-03-23T08:15:56;0.40;;;0.20;;
1625;SDS011;806;48.770;9.156;2024-03-23T08:18:22;0.50;;;0.20;;
1625;SDS011;806;48.770;9.156;2024-03-23T08:20:56;0.50;;;0.20;;
1625;SDS011;806;48.770;9.156;2024-03-23T08:23:23;0.50;;;0.20;;
1625;SDS011;806;48.770;9.156;2024-03-23T08:25:51;0.40;;;0.20;;
1625;SDS011;806;48.770;9.156;2024-03-23T08:28:22;0.40;;;0.20;;
1625;SDS011;806;48.770;9.156;2024-03-23T08:30:49;0.30;;;0.10;;
1625;SDS011;806;48.770;9.156;2024-03-23T08:33:15;0.40;;;0.20;;
1625;SDS011;806;48.770;9.156;2024-03-23T08:35:42;0.40;;;0.20;;
1625;SDS011;806;48.770;9.156;2024-03-23T08:38:08;0.50;;;0.20;;
1625;SDS011;806;48.770;9.156;2024-03-23T08:40:35;0.70;;;0.40;;
1625;SDS011;806;48.770;9.156;2024-03-23T08:43:02;0.40;;;0.20;;
1625;SDS011;806;48.770;9.156;2024-03-23T08:45:29;0.50;;;0.20;;
1625;SDS011;806;48.770;9.156;2024-03-23T08:47:56;0.50;;;0.20;;
1625;SDS011;806;48.770;9.156;2024-03-23T08:50:23;0.60;;;0.20;;
1625;SDS011;806;48.770;9.156;2024-03-23T08:52:50;1.73;;;0.28;;
1625;SDS011;806;48.770;9.156;2024-03-23T08:55:17;2.10;;;0.30;;
1625;SDS011;806;48.770;9.156;2024-03-23T08:57:43;0.60;;;0.30;;
1625;SDS011;806;48.770;9.156;2024-03-23T09:00:12;0.40;;;0.20;;
1625;SDS011;806;48.770;9.156;2024-03-23T09:02:39;0.60;;;0.20;;
1625;SDS011;806;48.770;9.156;2024-03-23T09:05:07;1.00;;;0.20;;
1625;SDS011;806;48.770;9.156;2024-03-23T09:07:33;1.10;;;0.30;;
1625;SDS011;806;48.770;9.156;2024-03-23T09:10:00;0.50;;;0.20;;
1625;SDS011;806;48.770;9.156;2024-03-23T09:12:26;0.70;;;0.28;;
1625;SDS011;806;48.770;9.156;2024-03-23T09:14:53;0.70;;;0.30;;
1625;SDS011;806;48.770;9.156;2024-03-23T09:17:21;0.67;;;0.30;;
1625;SDS011;806;48.770;9.156;2024-03-23T09:19:48;0.57;;;0.20;;
1625;SDS011;806;48.770;9.156;2024-03-23T09:22:14;1.17;;;0.40;;
1625;SDS011;806;48.770;9.156;2024-03-23T09:24:41;0.80;;;0.40;;
1625;SDS011;806;48.770;9.156;2024-03-23T09:27:07;0.60;;;0.40;;
1625;SDS011;806;48.770;9.156;2024-03-23T09:29:34;0.60;;;0.40;;
1625;SDS011;806;48.770;9.156;2024-03-23T09:32:00;1.20;;;0.40;;
1625;SDS011;806;48.770;9.156;2024-03-23T09:34:28;1.00;;;0.40;;
1625;SDS011;806;48.770;9.156;2024-03-23T09:36:54;2.72;;;0.40;;
1625;SDS011;806;48.770;9.156;2024-03-23T09:39:21;1.00;;;0.40;;
1625;SDS011;806;48.770;9.156;2024-03-23T09:41:47;1.55;;;0.60;;
1625;SDS011;806;48.770;9.156;2024-03-23T09:44:14;0.50;;;0.32;;
1625;SDS011;806;48.770;9.156;2024-03-23T09:46:40;1.10;;;0.40;;
1625;SDS011;806;48.770;9.156;2024-03-23T09:49:07;1.60;;;0.50;;
1625;SDS011;806;48.770;9.156;2024-03-23T09:51:36;6.05;;;2.50;;
1625;SDS011;806;48.770;9.156;2024-03-23T09:54:03;0.90;;;0.50;;
1625;SDS011;806;48.770;9.156;2024-03-23T09:56:29;1.55;;;0.40;;
1625;SDS011;806;48.770;9.156;2024-03-23T09:59:00;2.17;;;0.60;;
1625;SDS011;806;48.770;9.156;2024-03-23T10:01:26;1.08;;;0.50;;
1625;SDS011;806;48.770;9.156;2024-03-23T10:03:55;1.70;;;0.52;;
1625;SDS011;806;48.770;9.156;2024-03-23T10:06:21;2.10;;;0.60;;
1625;SDS011;806;48.770;9.156;2024-03-23T10:08:51;1.20;;;0.60;;
1625;SDS011;806;48.770;9.156;2024-03-23T10:11:19;0.90;;;0.60;;
1625;SDS011;806;48.770;9.156;2024-03-23T10:13:47;1.60;;;0.60;;
1625;SDS011;806;48.770;9.156;2024-03-23T10:16:20;2.00;;;0.60;;
1625;SDS011;806;48.770;9.156;2024-03-23T10:18:48;1.60;;;0.60;;
1625;SDS011;806;48.770;9.156;2024-03-23T10:21:15;2.53;;;0.50;;
1625;SDS011;806;48.770;9.156;2024-03-23T10:23:43;1.20;;;0.50;;
1625;SDS011;806;48.770;9.156;2024-03-23T10:26:17;1.07;;;0.50;;
1625;SDS011;806;48.770;9.156;2024-03-23T10:28:53;2.00;;;0.40;;
1625;SDS011;806;48.770;9.156;2024-03-23T10:31:20;1.30;;;0.50;;
1625;SDS011;806;48.770;9.156;2024-03-23T10:33:47;1.33;;;0.60;;
1625;SDS011;806;48.770;9.156;2024-03-23T10:36:14;1.35;;;0.50;;
1625;SDS011;806;48.770;9.156;2024-03-23T10:38:42;1.02;;;0.50;;
1625;SDS011;806;48.770;9.156;2024-03-23T10:41:09;1.00;;;0.57;;
1625;SDS011;806;48.770;9.156;2024-03-23T10:43:38;1.00;;;0.40;;
1625;SDS011;806;48.770;9.156;2024-03-23T10:46:04;1.47;;;0.50;;
1625;SDS011;806;48.770;9.156;2024-03-23T10:48:32;2.08;;;0.50;;
1625;SDS011;806;48.770;9.156;2024-03-23T10:50:58;1.88;;;0.60;;
1625;SDS011;806;48.770;9.156;2024-03-23T10:53:26;1.75;;;0.70;;
1625;SDS011;806;48.770;9.156;2024-03-23T10:55:53;1.00;;;0.60;;
1625;SDS011;806;48.770;9.156;2024-03-23T10:58:23;1.00;;;0.60;;
1625;SDS011;806;48.770;9.156;2024-03-23T11:00:55;0.80;;;0.40;;
1625;SDS011;806;48.770;9.156;2024-03-23T11:03:29;1.23;;;0.40;;
1625;SDS011;806;48.770;9.156;2024-03-23T11:05:56;0.60;;;0.30;;
1625;SDS011;806;48.770;9.156;2024-03-23T11:08:29;0.50;;;0.30;;
1625;SDS011;806;48.770;9.156;2024-03-23T11:11:11;0.60;;;0.30;;
1625;SDS011;806;48.770;9.156;2024-03-23T11:13:39;0.90;;;0.30;;
1625;SDS011;806;48.770;9.156;2024-03-23T11:16:14;0.50;;;0.30;;
1625;SDS011;806;48.770;9.156;2024-03-23T11:18:41;0.80;;;0.35;;
1625;SDS011;806;48.770;9.156;2024-03-23T11:21:08;1.50;;;0.40;;
1625;SDS011;806;48.770;9.156;2024-03-23T11:23:36;1.20;;;0.30;;
1625;SDS011;806;48.770;9.156;2024-03-23T11:26:02;3.50;;;1.40;;
1625;SDS011;806;48.770;9.156;2024-03-23T11:28:33;1.30;;;0.30;;
1625;SDS011;806;48.770;9.156;2024-03-23T11:30:59;0.60;;;0.30;;
1625;SDS011;806;48.770;9.156;2024-03-23T11:33:27;0.90;;;0.30;;
1625;SDS011;806;48.770;9.156;2024-03-23T11:35:54;0.70;;;0.38;;
1625;SDS011;806;48.770;9.156;2024-03-23T11:38:21;1.15;;;0.40;;
1625;SDS011;806;48.770;9.156;2024-03-23T11:40:48;1.20;;;0.40;;
1625;SDS011;806;48.770;9.156;2024-03-23T11:43:16;1.00;;;0.30;;
1625;SDS011;806;48.770;9.156;2024-03-23T11:45:43;0.50;;;0.30;;
1625;SDS011;806;48.770;9.156;2024-03-23T11:48:11;1.52;;;0.30;;
1625;SDS011;806;48.770;9.156;2024-03-23T11:50:40;0.45;;;0.30;;
1625;SDS011;806;48.770;9.156;2024-03-23T11:53:09;0.70;;;0.30;;
1625;SDS011;806;48.770;9.156;2024-03-23T11:55:41;0.80;;;0.30;;
1625;SDS011;806;48.770;9.156;2024-03-23T11:58:09;0.50;;;0.20;;
1625;SDS011;806;48.770;9.156;2024-03-23T12:00:35;0.50;;;0.20;;
1625;SDS011;806;48.770;9.156;2024-03-23T12:03:03;0.47;;;0.20;;
1625;SDS011;806;48.770;9.156;2024-03-23T12:05:29;0.60;;;0.20;;
1625;SDS011;806;48.770;9.156;2024-03-23T12:10:44;1.10;;;0.20;;
1625;SDS011;806;48.770;9.156;2024-03-23T12:13:14;1.40;;;0.30;;
1625;SDS011;806;48.770;9.156;2024-03-23T12:15:45;0.80;;;0.20;;
1625;SDS011;806;48.770;9.156;2024-03-23T12:18:13;1.30;;;0.20;;
1625;SDS011;806;48.770;9.156;2024-03-23T12:20:39;0.90;;;0.20;;
1625;SDS011;806;48.770;9.156;2024-03-23T12:23:07;0.70;;;0.20;;
1625;SDS011;806;48.770;9.156;2024-03-23T12:25:36;0.90;;;0.30;;
1625;SDS011;806;48.770;9.156;2024-03-23T12:28:03;1.58;;;0.20;;
1625;SDS011;806;48.770;9.156;2024-03-23T12:30:31;0.80;;;0.30;;
1625;SDS011;806;48.770;9.156;2024-03-23T12:32:59;0.50;;;0.20;;
1625;SDS011;806;48.770;9.156;2024-03-23T12:35:25;0.88;;;0.30;;
1625;SDS011;806;48.770;9.156;2024-03-23T12:37:53;1.10;;;0.30;;
1625;SDS011;806;48.770;9.156;2024-03-23T12:40:19;1.20;;;0.40;;
1625;SDS011;806;48.770;9.156;2024-03-23T12:42:47;0.90;;;0.25;;
1625;SDS011;806;48.770;9.156;2024-03-23T12:45:13;1.98;;;0.40;;
1625;SDS011;806;48.770;9.156;2024-03-23T12:47:40;0.90;;;0.60;;
1625;SDS011;806;48.770;9.156;2024-03-23T12:50:07;2.20;;;0.30;;
1625;SDS011;806;48.770;9.156;2024-03-23T12:52:34;0.80;;;0.30;;
1625;SDS011;806;48.770;9.156;2024-03-23T12:55:02;0.67;;;0.30;;
1625;SDS011;806;48.770;9.156;2024-03-23T12:57:30;0.80;;;0.30;;
1625;SDS011;806;48.770;9.156;2024-03-23T12:59:58;1.10;;;0.30;;
1625;SDS011;806;48.770;9.156;2024-03-23T13:02:26;0.90;;;0.30;;
1625;SDS011;806;48.770;9.156;2024-03-23T13:04:52;1.50;;;0.40;;
1625;SDS011;806;48.770;9.156;2024-03-23T13:07:20;1.05;;;0.40;;
1625;SDS011;806;48.770;9.156;2024-03-23T13:09:49;1.60;;;0.30;;
1625;SDS011;806;48.770;9.156;2024-03-23T13:12:19;1.17;;;0.30;;
1625;SDS011;806;48.770;9.156;2024-03-23T13:14:45;0.70;;;0.40;;
1625;SDS011;806;48.770;9.156;2024-03-23T13:17:16;0.90;;;0.30;;
1625;SDS011;806;48.770;9.156;2024-03-23T13:19:42;1.05;;;0.40;;
1625;SDS011;806;48.770;9.156;2024-03-23T13:22:09;1.50;;;0.40;;
1625;SDS011;806;48.770;9.156;2024-03-23T13:24:36;0.98;;;0.40;;
1625;SDS011;806;48.770;9.156;2024-03-23T13:27:04;0.90;;;0.38;;
1625;SDS011;806;48.770;9.156;2024-03-23T13:29:33;2.42;;;0.50;;
1625;SDS011;806;48.770;9.156;2024-03-23T13:32:01;1.70;;;0.77;;
1625;SDS011;806;48.770;9.156;2024-03-23T13:34:28;1.20;;;0.40;;
1625;SDS011;806;48.770;9.156;2024-03-23T13:36:55;0.80;;;0.22;;
1625;SDS011;806;48.770;9.156;2024-03-23T13:39:23;1.20;;;0.30;;
1625;SDS011;806;48.770;9.156;2024-03-23T13:41:50;0.60;;;0.20;;
1625;SDS011;806;48.770;9.156;2024-03-23T13:44:16;1.00;;;0.20;;
1625;SDS011;806;48.770;9.156;2024-03-23T13:46:43;1.80;;;0.30;;
1625;SDS011;806;48.770;9.156;2024-03-23T13:49:11;1.15;;;0.30;;
1625;SDS011;806;48.770;9.156;2024-03-23T13:51:52;0.90;;;0.30;;
1625;SDS011;806;48.770;9.156;2024-03-23T13:54:19;0.50;;;0.20;;
1625;SDS011;806;48.770;9.156;2024-03-23T13:56:49;1.02;;;0.30;;
1625;SDS011;806;48.770;9.156;2024-03-23T13:59:15;0.60;;;0.20;;
1625;SDS011;806;48.770;9.156;2024-03-23T14:01:43;0.55;;;0.20;;
1625;SDS011;806;48.770;9.156;2024-03-23T14:04:10;0.60;;;0.22;;
1625;SDS011;806;48.770;9.156;2024-03-23T14:06:37;1.58;;;0.30;;
1625;SDS011;806;48.770;9.156;2024-03-23T14:09:05;0.60;;;0.30;;
1625;SDS011;806;48.770;9.156;2024-03-23T14:11:34;1.50;;;0.25;;
1625;SDS011;806;48.770;9.156;2024-03-23T14:14:02;1.50;;;0.30;;
1625;SDS011;806;48.770;9.156;2024-03-23T14:16:29;0.70;;;0.30;;
1625;SDS011;806;48.770;9.156;2024-03-23T14:18:56;1.55;;;0.40;;
1625;SDS011;806;48.770;9.156;2024-03-23T14:21:23;1.17;;;0.25;;
1625;SDS011;806;48.770;9.156;2024-03-23T14:23:49;1.00;;;0.20;;
1625;SDS011;806;48.770;9.156;2024-03-23T14:26:18;2.10;;;0.20;;
1625;SDS011;806;48.770;9.156;2024-03-23T14:28:45;0.63;;;0.20;;
1625;SDS011;806;48.770;9.156;2024-03-23T14:31:12;1.50;;;0.20;;
1625;SDS011;806;48.770;9.156;2024-03-23T14:33:38;0.60;;;0.20;;
1625;SDS011;806;48.770;9.156;2024-03-23T14:36:11;0.90;;;0.20;;
1625;SDS011;806;48.770;9.156;2024-03-23T14:38:37;1.20;;;0.20;;
1625;SDS011;806;48.770;9.156;2024-03-23T14:41:05;0.50;;;0.20;;
1625;SDS011;806;48.770;9.156;2024-03-23T14:43:32;0.73;;;0.20;;
1625;SDS011;806;48.770;9.156;2024-03-23T14:46:06;0.40;;;0.20;;
1625;SDS011;806;48.770;9.156;2024-03-23T14:48:33;0.50;;;0.20;;
1625;SDS011;806;48.770;9.156;2024-03-23T14:51:00;0.50;;;0.20;;
1625;SDS011;806;48.770;9.156;2024-03-23T14:53:27;1.17;;;0.20;;
1625;SDS011;806;48.770;9.156;2024-03-23T14:55:55;0.50;;;0.20;;
1625;SDS011;806;48.770;9.156;2024-03-23T14:58:21;0.50;;;0.20;;
1625;SDS011;806;48.770;9.156;2024-03-23T15:00:51;0.93;;;0.30;;
1625;SDS011;806;48.770;9.156;2024-03-23T15:03:17;1.30;;;0.20;;
1625;SDS011;806;48.770;9.156;2024-03-23T15:05:51;0.90;;;0.20;;
1625;SDS011;806;48.770;9.156;2024-03-23T15:08:18;0.63;;;0.20;;
1625;SDS011;806;48.770;9.156;2024-03-23T15:10:45;0.50;;;0.20;;
1625;SDS011;806;48.770;9.156;2024-03-23T15:13:11;1.02;;;0.20;;
1625;SDS011;806;48.770;9.156;2024-03-23T15:15:38;0.70;;;0.20;;
1625;SDS011;806;48.770;9.156;2024-03-23T15:18:07;0.40;;;0.20;;
1625;SDS011;806;48.770;9.156;2024-03-23T15:20:34;0.40;;;0.20;;
1625;SDS011;806;48.770;9.156;2024-03-23T15:23:01;1.05;;;0.20;;
1625;SDS011;806;48.770;9.156;2024-03-23T15:25:28;1.25;;;0.20;;
1625;SDS011;806;48.770;9.156;2024-03-23T15:27:54;1.50;;;0.20;;
1625;SDS011;806;48.770;9.156;2024-03-23T15:30:22;0.45;;;0.20;;
1625;SDS011;806;48.770;9.156;2024-03-23T15:32:48;0.50;;;0.20;;
1625;SDS011;806;48.770;9.156;2024-03-23T15:35:16;0.50;;;0.20;;
1625;SDS011;806;48.770;9.156;2024-03-23T15:37:42;0.88;;;0.20;;
1625;SDS011;806;48.770;9.156;2024-03-23T15:40:10;1.27;;;0.20;;
1625;SDS011;806;48.770;9.156;2024-03-23T15:42:38;0.40;;;0.20;;
1625;SDS011;806;48.770;9.156;2024-03-23T15:45:06;0.50;;;0.20;;
1625;SDS011;806;48.770;9.156;2024-03-23T15:47:32;0.82;;;0.20;;
1625;SDS011;806;48.770;9.156;2024-03-23T15:49:59;0.85;;;0.20;;
1625;SDS011;806;48.770;9.156;2024-03-23T15:52:27;0.40;;;0.20;;
1625;SDS011;806;48.770;9.156;2024-03-23T15:54:54;1.10;;;0.20;;
1625;SDS011;806;48.770;9.156;2024-03-23T15:57:23;0.70;;;0.20;;
1625;SDS011;806;48.770;9.156;2024-03-23T15:59:50;0.60;;;0.20;;
1625;SDS011;806;48.770;9.156;2024-03-23T16:02:16;0.43;;;0.20;;
1625;SDS011;806;48.770;9.156;2024-03-23T16:04:43;0.70;;;0.20;;
1625;SDS011;806;48.770;9.156;2024-03-23T16:07:10;0.50;;;0.20;;
1625;SDS011;806;48.770;9.156;2024-03-23T16:09:40;0.50;;;0.30;;
1625;SDS011;806;48.770;9.156;2024-03-23T16:12:05;0.40;;;0.20;;
1625;SDS011;806;48.770;9.156;2024-03-23T16:14:32;0.60;;;0.20;;
1625;SDS011;806;48.770;9.156;2024-03-23T16:16:58;0.60;;;0.10;;
1625;SDS011;806;48.770;9.156;2024-03-23T16:19:25;1.10;;;0.20;;
1625;SDS011;806;48.770;9.156;2024-03-23T16:21:51;0.70;;;0.20;;
1625;SDS011;806;48.770;9.156;2024-03-23T16:24:19;0.45;;;0.10;;